createdAt,value
2018-09-08T00:02:15.621Z,70.79
2018-09-08T00:05:20.478Z,69.45
2018-09-08T00:08:25.371Z,69.31
2018-09-08T00:11:30.454Z,70.01
2018-09-08T00:14:34.253Z,70.22
2018-09-08T00:17:44.528Z,70.23
2018-09-08T00:20:54.691Z,72.82
2018-09-08T00:24:04.862Z,75.77
2018-09-08T00:27:08.815Z,76.98
2018-09-08T00:30:15.334Z,77.58
2018-09-08T00:33:20.336Z,77.99
2018-09-08T00:36:25.176Z,77.41
2018-09-08T00:39:31.339Z,77.37
2018-09-08T00:42:36.292Z,77.46
2018-09-08T00:45:41.200Z,77.03
2018-09-08T00:48:46.109Z,76.64
2018-09-08T00:51:51.055Z,77.40
2018-09-08T00:54:57.009Z,75.98
2018-09-08T00:58:01.877Z,76.82
2018-09-08T01:01:06.873Z,77.61
2018-09-08T01:04:11.782Z,77.47
2018-09-08T01:07:21.776Z,77.00
2018-09-08T01:10:26.642Z,76.92
2018-09-08T01:13:31.530Z,77.94
2018-09-08T01:16:36.469Z,78.37
2018-09-08T01:19:41.353Z,78.30
2018-09-08T01:22:46.205Z,79.28
2018-09-08T01:25:51.045Z,78.75
2018-09-08T01:28:55.857Z,78.93
2018-09-08T01:32:00.665Z,79.86
2018-09-08T01:35:05.671Z,79.36
2018-09-08T01:38:10.739Z,79.68
2018-09-08T01:41:15.548Z,79.97
2018-09-08T01:44:20.365Z,80.52
2018-09-08T01:47:25.278Z,80.37
2018-09-08T01:50:30.234Z,80.82
2018-09-08T01:53:35.058Z,81.47
2018-09-08T01:56:39.890Z,81.26
2018-09-08T01:59:44.871Z,81.69
2018-09-08T02:02:49.769Z,81.19
2018-09-08T02:05:54.601Z,81.67
2018-09-08T02:08:59.619Z,81.46
2018-09-08T02:12:04.625Z,81.01
2018-09-08T02:15:09.876Z,80.76
2018-09-08T02:18:14.925Z,81.04
2018-09-08T02:21:19.855Z,81.97
2018-09-08T02:24:24.761Z,82.33
2018-09-08T02:27:29.692Z,81.79
2018-09-08T02:30:34.701Z,82.08
2018-09-08T02:33:39.557Z,80.99
2018-09-08T02:36:44.425Z,82.50
2018-09-08T02:39:49.201Z,82.19
2018-09-08T02:42:54.034Z,81.70
2018-09-08T02:45:58.870Z,82.33
2018-09-08T02:49:03.769Z,82.29
2018-09-08T02:52:06.742Z,82.73
2018-09-08T02:55:09.649Z,82.43
2018-09-08T02:58:12.550Z,83.43
2018-09-08T03:01:15.521Z,84.20
2018-09-08T03:04:18.455Z,84.80
2018-09-08T03:07:21.489Z,84.06
2018-09-08T03:10:24.417Z,82.47
2018-09-08T03:13:27.340Z,83.08
2018-09-08T03:16:30.330Z,83.04
2018-09-08T03:19:33.239Z,83.23
2018-09-08T03:22:36.158Z,84.59
2018-09-08T03:25:39.112Z,84.49
2018-09-08T03:28:42.054Z,85.09
2018-09-08T03:31:44.960Z,85.64
2018-09-08T03:34:47.906Z,86.21
2018-09-08T03:37:50.835Z,86.29
2018-09-08T03:40:53.865Z,86.70
2018-09-08T03:43:56.796Z,86.45
2018-09-08T03:46:59.925Z,86.84
2018-09-08T03:50:02.849Z,87.12
2018-09-08T03:53:05.805Z,86.97
2018-09-08T03:56:08.843Z,86.96
2018-09-08T03:59:11.831Z,88.40
2018-09-08T04:02:14.755Z,88.65
2018-09-08T04:05:19.597Z,88.94
2018-09-08T04:08:24.448Z,89.51
2018-09-08T04:11:29.340Z,89.98
2018-09-08T04:14:34.295Z,89.54
2018-09-08T04:17:39.147Z,89.85
2018-09-08T04:20:44.181Z,89.80
2018-09-08T04:23:49.043Z,89.96
2018-09-08T04:26:53.809Z,90.11
2018-09-08T04:29:58.682Z,89.74
2018-09-08T04:33:03.864Z,90.09
2018-09-08T04:36:08.667Z,89.60
2018-09-08T04:39:13.698Z,90.28
2018-09-08T04:42:18.534Z,90.07
2018-09-08T04:45:23.417Z,90.38
2018-09-08T04:48:28.224Z,89.88
2018-09-08T04:51:33.085Z,89.61
2018-09-08T04:54:37.962Z,89.54
2018-09-08T04:57:42.970Z,90.26
2018-09-08T05:00:47.865Z,90.72
2018-09-08T05:03:52.767Z,90.55
2018-09-08T05:06:57.597Z,90.50
2018-09-08T05:10:02.496Z,90.29
2018-09-08T05:13:07.899Z,90.00
2018-09-08T05:16:12.688Z,89.16
2018-09-08T05:19:17.554Z,88.83
2018-09-08T05:22:22.361Z,88.11
2018-09-08T05:25:27.325Z,87.50
2018-09-08T05:28:32.259Z,86.40
2018-09-08T05:31:37.032Z,84.34
2018-09-08T05:34:41.942Z,81.85
2018-09-08T05:37:46.791Z,82.68
2018-09-08T05:40:51.548Z,84.07
2018-09-08T05:43:56.435Z,84.75
2018-09-08T05:47:01.247Z,84.32
2018-09-08T05:50:06.226Z,82.89
2018-09-08T05:53:11.088Z,80.59
2018-09-08T05:56:16.008Z,77.74
2018-09-08T05:59:20.890Z,78.25
2018-09-08T06:02:25.817Z,78.77
2018-09-08T06:05:30.646Z,79.00
2018-09-08T06:08:35.587Z,78.10
2018-09-08T06:11:40.722Z,77.34
2018-09-08T06:14:45.608Z,79.00
2018-09-08T06:17:50.391Z,80.18
2018-09-08T06:20:55.311Z,79.33
2018-09-08T06:24:00.164Z,78.73
2018-09-08T06:27:04.984Z,77.12
2018-09-08T06:30:09.893Z,76.41
2018-09-08T06:33:14.735Z,75.07
2018-09-08T06:36:19.495Z,75.34
2018-09-08T06:39:24.406Z,73.57
2018-09-08T06:42:29.240Z,73.25
2018-09-08T06:45:34.138Z,73.15
2018-09-08T06:48:38.940Z,73.30
2018-09-08T06:51:43.769Z,73.54
2018-09-08T06:54:48.609Z,72.11
2018-09-08T06:57:53.634Z,71.75
2018-09-08T07:00:58.463Z,71.81
2018-09-08T07:04:03.262Z,71.18
2018-09-08T07:07:11.927Z,71.67
2018-09-08T07:10:16.899Z,71.49
2018-09-08T07:13:21.710Z,70.59
2018-09-08T07:16:26.559Z,69.82
2018-09-08T07:19:31.382Z,69.67
2018-09-08T07:22:36.352Z,69.88
2018-09-08T07:25:41.231Z,67.94
2018-09-08T07:28:46.135Z,68.73
2018-09-08T07:31:51.003Z,68.65
2018-09-08T07:34:55.810Z,66.36
2018-09-08T07:38:00.700Z,64.30
2018-09-08T07:41:05.679Z,63.29
2018-09-08T07:44:10.570Z,62.96
2018-09-08T07:47:15.488Z,61.75
2018-09-08T07:50:20.367Z,61.85
2018-09-08T07:53:25.242Z,62.50
2018-09-08T07:56:30.142Z,62.22
2018-09-08T07:59:35.177Z,62.45
2018-09-08T08:02:40.091Z,62.14
2018-09-08T08:05:44.948Z,62.29
2018-09-08T08:08:49.907Z,61.00
2018-09-08T08:11:54.782Z,57.86
2018-09-08T08:14:59.717Z,57.69
2018-09-08T08:18:04.632Z,56.54
2018-09-08T08:21:09.669Z,53.67
2018-09-08T08:24:14.563Z,52.14
2018-09-08T08:27:19.452Z,52.19
2018-09-08T08:30:24.344Z,50.24
2018-09-08T08:33:29.215Z,52.17
2018-09-08T08:36:34.215Z,50.50
2018-09-08T08:39:39.067Z,46.57
2018-09-08T08:42:44.120Z,46.74
2018-09-08T08:45:48.985Z,43.90
2018-09-08T08:48:53.959Z,44.70
2018-09-08T08:52:15.703Z,43.79
2018-09-08T08:55:20.507Z,43.73
2018-09-08T08:58:25.390Z,42.63
2018-09-08T09:01:30.245Z,42.97
2018-09-08T09:04:35.140Z,41.97
2018-09-08T09:07:40.088Z,42.50
2018-09-08T09:10:44.947Z,42.22
2018-09-08T09:13:49.905Z,40.07
2018-09-08T09:16:54.870Z,41.09
2018-09-08T09:20:16.531Z,39.89
2018-09-08T09:24:58.690Z,40.36
2018-09-08T09:28:03.466Z,40.14
2018-09-08T09:31:08.397Z,38.81
2018-09-08T09:34:13.244Z,38.69
2018-09-08T09:37:18.193Z,38.27
2018-09-08T09:40:23.495Z,37.66
2018-09-08T09:43:28.322Z,38.07
2018-09-08T09:46:33.430Z,38.25
2018-09-08T09:49:38.191Z,38.68
2018-09-08T09:52:43.226Z,37.27
2018-09-08T09:55:48.107Z,37.77
2018-09-08T09:58:53.045Z,39.49
2018-09-08T10:02:03.267Z,35.90
2018-09-08T10:05:13.093Z,36.16
2018-09-08T10:08:18.092Z,36.82
2018-09-08T10:11:22.963Z,36.01
2018-09-08T10:14:27.846Z,35.47
2018-09-08T10:17:32.855Z,35.41
2018-09-08T10:20:37.779Z,34.37
2018-09-08T10:24:04.339Z,36.77
2018-09-08T10:26:47.694Z,35.00
2018-09-08T10:29:53.724Z,36.31
2018-09-08T10:33:07.666Z,33.66
2018-09-08T10:36:12.729Z,34.50
2018-09-08T10:39:17.594Z,35.80
2018-09-08T10:42:22.525Z,35.08
2018-09-08T10:45:27.435Z,33.81
2018-09-08T10:48:33.238Z,32.23
2018-09-08T10:53:00.164Z,31.90
2018-09-08T10:56:05.181Z,33.22
2018-09-08T10:59:10.211Z,33.61
2018-09-08T11:02:15.596Z,34.68
2018-09-08T11:05:20.103Z,34.89
2018-09-08T11:08:24.971Z,35.77
2018-09-08T11:11:29.982Z,35.34
2018-09-08T11:14:34.985Z,35.89
2018-09-08T11:17:39.875Z,35.21
2018-09-08T11:20:45.179Z,35.82
2018-09-08T11:23:50.144Z,35.39
2018-09-08T11:26:55.269Z,36.23
2018-09-08T11:30:00.088Z,34.96
2018-09-08T11:33:05.024Z,35.55
2018-09-08T11:36:09.888Z,35.77
2018-09-08T11:39:15.699Z,33.70
2018-09-08T11:42:20.542Z,34.01
2018-09-08T11:45:25.543Z,33.74
2018-09-08T11:48:30.492Z,33.22
2018-09-08T11:51:35.347Z,33.73
2018-09-08T11:54:40.565Z,33.58
2018-09-08T11:57:45.527Z,35.53
2018-09-08T12:00:50.617Z,34.95
2018-09-08T12:03:55.579Z,35.77
2018-09-08T12:07:00.470Z,35.14
2018-09-08T12:10:05.711Z,34.88
2018-09-08T12:13:10.794Z,32.93
2018-09-08T12:16:15.757Z,32.41
2018-09-08T12:19:20.686Z,32.72
2018-09-08T12:22:25.805Z,33.51
2018-09-08T12:25:30.851Z,33.08
2018-09-08T12:28:35.810Z,32.90
2018-09-08T12:31:40.718Z,33.87
2018-09-08T12:34:50.838Z,33.25
2018-09-08T12:37:55.845Z,33.97
2018-09-08T12:41:00.767Z,33.77
2018-09-08T12:44:05.785Z,34.91
2018-09-08T12:47:10.654Z,34.18
2018-09-08T12:50:15.719Z,33.19
2018-09-08T12:53:20.695Z,31.79
2018-09-08T12:56:25.684Z,29.16
2018-09-08T12:59:35.069Z,30.43
2018-09-08T13:02:39.951Z,29.75
2018-09-08T13:05:46.170Z,28.91
2018-09-08T13:08:52.440Z,28.42
2018-09-08T13:11:57.402Z,29.76
2018-09-08T13:15:02.311Z,29.17
2018-09-08T13:18:07.291Z,29.79
2018-09-08T13:21:12.236Z,29.52
2018-09-08T13:24:17.207Z,29.67
2018-09-08T13:27:22.142Z,29.58
2018-09-08T13:30:26.978Z,29.63
2018-09-08T13:33:31.912Z,29.59
2018-09-08T13:36:36.766Z,29.96
2018-09-08T13:39:41.690Z,29.92
2018-09-08T13:42:46.545Z,30.93
2018-09-08T13:45:51.810Z,30.19
2018-09-08T13:48:56.832Z,29.97
2018-09-08T13:52:01.823Z,30.62
2018-09-08T13:55:06.786Z,31.09
2018-09-08T13:58:11.667Z,31.44
2018-09-08T14:01:16.529Z,30.04
2018-09-08T14:04:21.387Z,31.05
2018-09-08T14:07:26.414Z,31.18
2018-09-08T14:10:31.361Z,30.17
2018-09-08T14:13:36.247Z,30.91
2018-09-08T14:16:41.093Z,29.78
2018-09-08T14:19:46.049Z,30.06
2018-09-08T14:22:50.940Z,29.27
2018-09-08T14:25:55.827Z,30.68
2018-09-08T14:29:09.087Z,30.59
2018-09-08T14:32:13.969Z,30.58
2018-09-08T14:35:18.812Z,31.34
2018-09-08T14:38:23.787Z,32.28
2018-09-08T14:41:28.778Z,32.08
2018-09-08T14:44:33.845Z,31.04
2018-09-08T14:47:39.339Z,31.19
2018-09-08T14:50:44.297Z,31.75
2018-09-08T14:53:49.581Z,31.57
2018-09-08T14:56:54.453Z,30.80
2018-09-08T15:00:00.286Z,32.31
2018-09-08T15:03:05.362Z,30.65
2018-09-08T15:06:10.345Z,32.00
2018-09-08T15:09:15.388Z,31.14
2018-09-08T15:12:20.336Z,32.17
2018-09-08T15:15:25.201Z,31.09
2018-09-08T15:18:30.277Z,31.46
2018-09-08T15:21:35.198Z,33.74
2018-09-08T15:24:40.175Z,32.37
2018-09-08T15:27:45.181Z,31.39
2018-09-08T15:30:50.135Z,31.04
2018-09-08T15:33:55.197Z,31.68
2018-09-08T15:37:00.491Z,31.89
2018-09-08T15:40:05.762Z,32.07
2018-09-08T15:43:10.709Z,32.45
2018-09-08T15:46:15.753Z,34.27
2018-09-08T15:49:20.900Z,33.59
2018-09-08T15:52:25.856Z,34.90
2018-09-08T15:55:30.863Z,34.29
2018-09-08T15:58:36.035Z,33.65
2018-09-08T16:01:40.801Z,32.72
2018-09-08T16:04:45.785Z,32.68
2018-09-08T16:07:50.851Z,32.73
2018-09-08T16:10:55.739Z,34.86
2018-09-08T16:14:00.683Z,34.80
2018-09-08T16:17:05.606Z,35.05
2018-09-08T16:20:10.763Z,35.86
2018-09-08T16:23:15.834Z,34.20
2018-09-08T16:26:22.965Z,36.13
2018-09-08T16:29:27.885Z,36.70
2018-09-08T16:32:32.870Z,37.94
2018-09-08T16:35:37.749Z,39.29
2018-09-08T16:38:42.700Z,37.93
2018-09-08T16:41:47.562Z,36.68
2018-09-08T16:44:52.415Z,37.97
2018-09-08T16:47:57.307Z,39.69
2018-09-08T16:51:02.231Z,36.66
2018-09-08T16:54:07.604Z,39.26
2018-09-08T16:57:12.490Z,40.97
2018-09-08T17:00:17.390Z,42.06
2018-09-08T17:03:22.250Z,42.63
2018-09-08T17:06:27.257Z,40.98
2018-09-08T17:09:32.356Z,41.99
2018-09-08T17:12:37.418Z,42.69
2018-09-08T17:15:42.379Z,42.93
2018-09-08T17:18:47.300Z,41.68
2018-09-08T17:21:52.580Z,43.76
2018-09-08T17:24:57.624Z,44.41
2018-09-08T17:28:02.674Z,44.24
2018-09-08T17:31:07.664Z,44.99
2018-09-08T17:34:12.973Z,45.95
2018-09-08T17:37:18.112Z,44.82
2018-09-08T17:40:23.090Z,45.09
2018-09-08T17:43:28.143Z,46.04
2018-09-08T17:46:33.069Z,45.58
2018-09-08T17:49:38.033Z,46.52
2018-09-08T17:52:42.994Z,45.99
2018-09-08T17:55:47.907Z,46.78
2018-09-08T17:58:53.158Z,49.48
2018-09-08T18:01:58.802Z,50.38
2018-09-08T18:05:03.919Z,50.93
2018-09-08T18:08:08.863Z,50.66
2018-09-08T18:11:13.728Z,51.93
2018-09-08T18:14:18.662Z,52.43
2018-09-08T18:17:23.656Z,51.64
2018-09-08T18:20:28.594Z,53.12
2018-09-08T18:23:33.442Z,53.98
2018-09-08T18:26:38.342Z,54.72
2018-09-08T18:29:43.680Z,55.31
2018-09-08T18:32:48.769Z,56.46
2018-09-08T18:35:55.763Z,58.32
2018-09-08T18:39:00.742Z,55.26
2018-09-08T18:42:05.757Z,56.40
2018-09-08T18:45:10.794Z,57.18
2018-09-08T18:48:15.862Z,58.14
2018-09-08T18:51:20.841Z,58.90
2018-09-08T18:54:26.980Z,59.92
2018-09-08T18:57:32.031Z,58.67
2018-09-08T19:00:37.198Z,59.00
2018-09-08T19:03:42.201Z,56.64
2018-09-08T19:06:47.236Z,56.53
2018-09-08T19:09:57.400Z,56.78
2018-09-08T19:13:03.623Z,55.97
2018-09-08T19:16:09.295Z,56.67
2018-09-08T19:19:14.250Z,59.25
2018-09-08T19:22:19.651Z,59.77
2018-09-08T19:25:24.646Z,59.39
2018-09-08T19:28:29.671Z,58.73
2018-09-08T19:31:34.793Z,58.85
2018-09-08T19:34:39.763Z,58.90
2018-09-08T19:37:44.953Z,58.80
2018-09-08T19:40:49.961Z,59.82
2018-09-08T19:43:55.016Z,60.28
2018-09-08T19:48:08.687Z,61.32
2018-09-08T19:51:13.769Z,62.17
2018-09-08T19:54:18.907Z,62.04
2018-09-08T19:57:28.913Z,62.50
2018-09-08T20:00:34.003Z,63.18
2018-09-08T20:03:39.000Z,64.26
2018-09-08T20:06:43.869Z,62.18
2018-09-08T20:09:49.575Z,61.84
2018-09-08T20:12:54.603Z,62.48
2018-09-08T20:15:59.761Z,62.70
2018-09-08T20:19:05.892Z,61.52
2018-09-08T20:22:11.800Z,62.09
2018-09-08T20:25:16.730Z,62.39
2018-09-08T20:28:21.754Z,62.40
2018-09-08T20:31:26.973Z,63.03
2018-09-08T20:34:32.117Z,64.12
2018-09-08T20:37:37.266Z,65.01
2018-09-08T20:40:42.799Z,63.93
2018-09-08T20:43:47.763Z,65.15
2018-09-08T20:46:52.739Z,65.24
2018-09-08T20:49:57.660Z,65.74
2018-09-08T20:53:02.945Z,66.22
2018-09-08T20:56:08.019Z,66.32
2018-09-08T20:59:13.044Z,66.64
2018-09-08T21:02:17.894Z,67.13
2018-09-08T21:05:22.827Z,66.78
2018-09-08T21:08:27.850Z,67.94
2018-09-08T21:11:32.867Z,68.73
2018-09-08T21:14:38.671Z,68.04
2018-09-08T21:17:43.614Z,67.97
2018-09-08T21:20:48.499Z,69.11
2018-09-08T21:23:53.470Z,68.66
2018-09-08T21:26:58.423Z,68.54
2018-09-08T21:30:03.427Z,69.16
2018-09-08T21:33:08.393Z,69.86
2018-09-08T21:36:13.629Z,69.99
2018-09-08T21:39:18.703Z,71.08
2018-09-08T21:42:23.906Z,71.03
2018-09-08T21:45:28.878Z,71.02
2018-09-08T21:48:33.731Z,71.89
2018-09-08T21:51:38.866Z,72.43
2018-09-08T21:54:43.874Z,71.74
2018-09-08T21:57:48.954Z,72.33
2018-09-08T22:00:56.100Z,72.83
2018-09-08T22:04:01.163Z,72.58
2018-09-08T22:07:06.024Z,72.71
2018-09-08T22:10:10.963Z,73.39
2018-09-08T22:13:16.104Z,73.38
2018-09-08T22:16:21.036Z,73.61
2018-09-08T22:19:25.987Z,73.98
2018-09-08T22:22:31.066Z,74.13
2018-09-08T22:25:35.902Z,73.96
2018-09-08T22:28:40.855Z,73.84
2018-09-08T22:31:45.954Z,74.28
2018-09-08T22:34:51.246Z,74.26
2018-09-08T22:37:56.236Z,74.52
2018-09-08T22:41:01.151Z,75.54
2018-09-08T22:44:06.803Z,75.40
2018-09-08T22:47:11.720Z,76.52
2018-09-08T22:50:16.900Z,76.98
2018-09-08T22:53:21.772Z,76.61
2018-09-08T22:56:26.658Z,75.72
2018-09-08T22:59:31.589Z,75.40
2018-09-08T23:02:36.521Z,75.10
2018-09-08T23:05:41.764Z,76.37
2018-09-08T23:08:46.744Z,77.32
2018-09-08T23:11:51.639Z,77.24
2018-09-08T23:14:56.588Z,76.94
2018-09-08T23:18:02.283Z,76.42
2018-09-08T23:21:07.501Z,75.75
2018-09-08T23:24:12.754Z,75.77
2018-09-08T23:27:17.640Z,74.67
2018-09-08T23:30:22.507Z,75.53
2018-09-08T23:33:27.435Z,76.07
2018-09-08T23:36:32.388Z,76.69
2018-09-08T23:39:37.241Z,77.10
2018-09-08T23:42:42.072Z,77.67
2018-09-08T23:45:47.246Z,77.61
2018-09-08T23:48:52.133Z,77.65
2018-09-08T23:51:57.039Z,77.46
2018-09-08T23:55:02.041Z,78.04
2018-09-08T23:58:07.037Z,78.38
